SWA1792 KHOU-KTUL
Flight info
| Callsign | SWA1792 |
|---|---|
| Flight time | 1h 1m |
| Altitude | 38000 |
| Route | STYCK8 WTSON BYP/N0455F370 TUL |
| Aircraft | B738/M-SDE2E3FGHIRWXY/LB1 |
Departure
| Time | 2026-05-08 23:31 |
|---|---|
| Airport | William P. Hobby Airport (KHOU) |
Arrival
| Time | 2026-05-09 00:33 |
|---|---|
| Airport | Tulsa International Airport (KTUL) |
| Time | Latitude | Longitude | Altitude | Speed | Heading |
|---|---|---|---|---|---|
| 2026-05-08 23:17 | 29.65221 | -95.27739 | 51 ft | 0 kts | 339° |
| 2026-05-08 23:26 | 29.65220 | -95.27738 | 51 ft | 1 kts | 339° |
| 2026-05-08 23:26 | 29.65197 | -95.27728 | 51 ft | 4 kts | 339° |
| 2026-05-08 23:26 | 29.65172 | -95.27717 | 48 ft | 4 kts | 339° |
| 2026-05-08 23:26 | 29.65147 | -95.27706 | 51 ft | 4 kts | 339° |
| 2026-05-08 23:27 | 29.65136 | -95.27702 | 51 ft | 1 kts | 339° |
| 2026-05-08 23:28 | 29.65138 | -95.27702 | 51 ft | 1 kts | 338° |
| 2026-05-08 23:28 | 29.65142 | -95.27724 | 51 ft | 6 kts | 277° |
| 2026-05-08 23:29 | 29.65142 | -95.27807 | 51 ft | 14 kts | 269° |
| 2026-05-08 23:29 | 29.65190 | -95.27927 | 51 ft | 20 kts | 314° |
| 2026-05-08 23:29 | 29.65290 | -95.28045 | 48 ft | 20 kts | 315° |
| 2026-05-08 23:29 | 29.65333 | -95.28180 | 50 ft | 20 kts | 252° |
| 2026-05-08 23:30 | 29.65288 | -95.28324 | 51 ft | 19 kts | 240° |
| 2026-05-08 23:30 | 29.65224 | -95.28449 | 51 ft | 18 kts | 268° |
| 2026-05-08 23:30 | 29.65195 | -95.28556 | 51 ft | 14 kts | 204° |
| 2026-05-08 23:30 | 29.65104 | -95.28555 | 51 ft | 13 kts | 154° |
| 2026-05-08 23:31 | 29.65034 | -95.28481 | 49 ft | 19 kts | 134° |
| 2026-05-08 23:31 | 29.64754 | -95.28145 | 51 ft | 99 kts | 134° |
| 2026-05-08 23:31 | 29.64104 | -95.27381 | 67 ft | 164 kts | 134° |
| 2026-05-08 23:31 | 29.63276 | -95.26418 | 849 ft | 171 kts | 133° |
| 2026-05-08 23:32 | 29.62432 | -95.25385 | 1622 ft | 190 kts | 126° |
| 2026-05-08 23:32 | 29.62053 | -95.23843 | 1881 ft | 219 kts | 85° |
| 2026-05-08 23:32 | 29.62767 | -95.22241 | 2297 ft | 240 kts | 44° |
| 2026-05-08 23:32 | 29.64274 | -95.21365 | 2911 ft | 252 kts | 11° |
| 2026-05-08 23:33 | 29.66078 | -95.21510 | 3319 ft | 273 kts | 342° |
| 2026-05-08 23:33 | 29.67859 | -95.22297 | 4031 ft | 281 kts | 337° |
| 2026-05-08 23:33 | 29.69659 | -95.23156 | 5065 ft | 280 kts | 336° |
| 2026-05-08 23:33 | 29.71471 | -95.24008 | 6033 ft | 282 kts | 336° |
| 2026-05-08 23:34 | 29.73299 | -95.24847 | 6971 ft | 284 kts | 336° |
| 2026-05-08 23:34 | 29.74524 | -95.25395 | 7542 ft | 287 kts | 336° |
| 2026-05-08 23:34 | 29.76401 | -95.26224 | 8363 ft | 291 kts | 336° |
| 2026-05-08 23:34 | 29.78310 | -95.27056 | 9171 ft | 295 kts | 336° |
| 2026-05-08 23:35 | 29.80242 | -95.27889 | 9985 ft | 298 kts | 336° |
| 2026-05-08 23:35 | 29.82214 | -95.28736 | 10561 ft | 312 kts | 336° |
| 2026-05-08 23:35 | 29.84333 | -95.29645 | 10747 ft | 337 kts | 336° |
| 2026-05-08 23:35 | 29.86595 | -95.30611 | 11055 ft | 354 kts | 336° |
| 2026-05-08 23:36 | 29.88939 | -95.31607 | 11675 ft | 360 kts | 336° |
| 2026-05-08 23:36 | 29.91293 | -95.32604 | 12460 ft | 361 kts | 336° |
| 2026-05-08 23:36 | 29.93655 | -95.33605 | 13228 ft | 363 kts | 335° |
| 2026-05-08 23:36 | 29.96042 | -95.34618 | 13918 ft | 367 kts | 335° |
| 2026-05-08 23:37 | 29.98448 | -95.35642 | 14587 ft | 370 kts | 335° |
| 2026-05-08 23:37 | 30.00879 | -95.36677 | 15257 ft | 374 kts | 334° |
| 2026-05-08 23:37 | 30.03326 | -95.37720 | 15944 ft | 376 kts | 334° |
| 2026-05-08 23:37 | 30.05756 | -95.38757 | 16592 ft | 378 kts | 334° |
| 2026-05-08 23:38 | 30.08237 | -95.39815 | 17188 ft | 382 kts | 334° |
| 2026-05-08 23:38 | 30.10712 | -95.40965 | 17785 ft | 383 kts | 329° |
| 2026-05-08 23:38 | 30.13119 | -95.42293 | 18381 ft | 384 kts | 327° |
| 2026-05-08 23:38 | 30.15524 | -95.43674 | 18922 ft | 388 kts | 327° |
| 2026-05-08 23:39 | 30.17956 | -95.45077 | 19424 ft | 393 kts | 327° |
| 2026-05-08 23:39 | 30.20420 | -95.46485 | 19915 ft | 398 kts | 327° |
| 2026-05-08 23:39 | 30.22921 | -95.47900 | 20404 ft | 402 kts | 327° |
| 2026-05-08 23:39 | 30.25448 | -95.49323 | 20909 ft | 405 kts | 327° |
| 2026-05-08 23:40 | 30.27992 | -95.50756 | 21369 ft | 409 kts | 327° |
| 2026-05-08 23:40 | 30.30564 | -95.52208 | 21792 ft | 413 kts | 327° |
| 2026-05-08 23:40 | 30.33159 | -95.53673 | 22238 ft | 417 kts | 327° |
| 2026-05-08 23:40 | 30.35776 | -95.55152 | 22658 ft | 420 kts | 327° |
| 2026-05-08 23:41 | 30.38414 | -95.56643 | 23060 ft | 424 kts | 327° |
| 2026-05-08 23:41 | 30.41075 | -95.58148 | 23434 ft | 428 kts | 327° |
| 2026-05-08 23:41 | 30.43758 | -95.59665 | 23826 ft | 430 kts | 327° |
| 2026-05-08 23:41 | 30.46458 | -95.61192 | 24197 ft | 433 kts | 327° |
| 2026-05-08 23:42 | 30.49146 | -95.62714 | 24541 ft | 437 kts | 327° |
| 2026-05-08 23:42 | 30.51885 | -95.64265 | 24941 ft | 438 kts | 327° |
| 2026-05-08 23:42 | 30.54635 | -95.65814 | 25363 ft | 440 kts | 327° |
| 2026-05-08 23:42 | 30.57421 | -95.67328 | 25706 ft | 444 kts | 327° |
| 2026-05-08 23:43 | 30.60240 | -95.68828 | 26031 ft | 447 kts | 328° |
| 2026-05-08 23:43 | 30.63080 | -95.70329 | 26379 ft | 449 kts | 328° |
| 2026-05-08 23:43 | 30.65937 | -95.71841 | 26724 ft | 451 kts | 327° |
| 2026-05-08 23:43 | 30.68790 | -95.73356 | 27057 ft | 453 kts | 327° |
| 2026-05-08 23:44 | 30.71662 | -95.74887 | 27370 ft | 455 kts | 327° |
| 2026-05-08 23:44 | 30.74546 | -95.76429 | 27676 ft | 457 kts | 327° |
| 2026-05-08 23:44 | 30.77450 | -95.77984 | 27980 ft | 459 kts | 327° |
| 2026-05-08 23:44 | 30.80357 | -95.79543 | 28278 ft | 461 kts | 327° |
| 2026-05-08 23:45 | 30.83274 | -95.81108 | 28564 ft | 463 kts | 326° |
| 2026-05-08 23:45 | 30.86203 | -95.82681 | 28857 ft | 464 kts | 326° |
| 2026-05-08 23:45 | 30.89140 | -95.84259 | 29130 ft | 466 kts | 326° |
| 2026-05-08 23:45 | 30.92095 | -95.85848 | 29397 ft | 468 kts | 326° |
| 2026-05-08 23:46 | 30.95016 | -95.87421 | 29633 ft | 470 kts | 326° |
| 2026-05-08 23:46 | 30.97995 | -95.89025 | 29861 ft | 472 kts | 326° |
| 2026-05-08 23:46 | 31.00982 | -95.90634 | 30119 ft | 474 kts | 326° |
| 2026-05-08 23:46 | 31.03983 | -95.92250 | 30426 ft | 474 kts | 326° |
| 2026-05-08 23:47 | 31.06972 | -95.93861 | 30823 ft | 472 kts | 325° |
| 2026-05-08 23:47 | 31.09940 | -95.95460 | 31294 ft | 468 kts | 325° |
| 2026-05-08 23:47 | 31.12975 | -95.96902 | 31677 ft | 476 kts | 332° |
| 2026-05-08 23:47 | 31.16230 | -95.97847 | 31968 ft | 486 kts | 339° |
| 2026-05-08 23:48 | 31.19559 | -95.98587 | 32334 ft | 486 kts | 340° |
| 2026-05-08 23:48 | 31.22881 | -95.99285 | 32713 ft | 485 kts | 340° |
| 2026-05-08 23:48 | 31.26197 | -95.99979 | 33036 ft | 484 kts | 339° |
| 2026-05-08 23:48 | 31.29508 | -96.00689 | 33338 ft | 483 kts | 339° |
| 2026-05-08 23:49 | 31.32764 | -96.01404 | 33710 ft | 480 kts | 339° |
| 2026-05-08 23:49 | 31.36076 | -96.02143 | 34150 ft | 477 kts | 338° |
| 2026-05-08 23:49 | 31.39321 | -96.02876 | 34493 ft | 475 kts | 338° |
| 2026-05-08 23:49 | 31.42566 | -96.03617 | 34733 ft | 476 kts | 338° |
| 2026-05-08 23:50 | 31.45778 | -96.04354 | 34924 ft | 477 kts | 338° |
| 2026-05-08 23:50 | 31.49042 | -96.05105 | 35109 ft | 479 kts | 338° |
| 2026-05-08 23:50 | 31.52314 | -96.05852 | 35387 ft | 478 kts | 338° |
| 2026-05-08 23:50 | 31.55578 | -96.06596 | 35638 ft | 478 kts | 338° |
| 2026-05-08 23:51 | 31.58845 | -96.07342 | 35876 ft | 478 kts | 337° |
| 2026-05-08 23:51 | 31.62108 | -96.08086 | 36145 ft | 477 kts | 337° |
| 2026-05-08 23:51 | 31.65367 | -96.08829 | 36391 ft | 477 kts | 337° |
| 2026-05-08 23:51 | 31.68630 | -96.09577 | 36503 ft | 480 kts | 337° |
| 2026-05-08 23:52 | 31.71914 | -96.10331 | 36662 ft | 481 kts | 337° |
| 2026-05-08 23:52 | 31.75190 | -96.11079 | 36982 ft | 478 kts | 337° |
| 2026-05-08 23:52 | 31.78443 | -96.11819 | 37347 ft | 473 kts | 336° |
| 2026-05-08 23:52 | 31.81669 | -96.12554 | 37702 ft | 469 kts | 336° |
| 2026-05-08 23:53 | 31.84868 | -96.13287 | 37890 ft | 469 kts | 336° |
| 2026-05-08 23:53 | 31.88039 | -96.14022 | 37876 ft | 472 kts | 336° |
| 2026-05-08 23:53 | 31.94497 | -96.15512 | 37874 ft | 472 kts | 336° |
| 2026-05-08 23:54 | 32.00914 | -96.16983 | 37883 ft | 468 kts | 336° |
| 2026-05-08 23:55 | 32.10469 | -96.19189 | 37882 ft | 464 kts | 336° |
| 2026-05-08 23:55 | 32.16797 | -96.20651 | 37878 ft | 463 kts | 336° |
| 2026-05-08 23:55 | 32.19980 | -96.21211 | 37865 ft | 476 kts | 344° |
| 2026-05-08 23:56 | 32.23308 | -96.21363 | 37894 ft | 480 kts | 347° |
| 2026-05-08 23:56 | 32.30034 | -96.21410 | 37887 ft | 484 kts | 348° |
| 2026-05-08 23:57 | 32.36770 | -96.21429 | 37892 ft | 484 kts | 347° |
| 2026-05-08 23:57 | 32.43519 | -96.21509 | 37883 ft | 485 kts | 347° |
| 2026-05-08 23:58 | 32.50282 | -96.21622 | 37879 ft | 487 kts | 347° |
| 2026-05-08 23:58 | 32.57065 | -96.21744 | 37882 ft | 488 kts | 347° |
| 2026-05-08 23:59 | 32.63855 | -96.21862 | 37886 ft | 488 kts | 347° |
| 2026-05-08 23:59 | 32.70644 | -96.21976 | 37895 ft | 488 kts | 347° |
| 2026-05-09 00:00 | 32.77385 | -96.22090 | 37883 ft | 487 kts | 347° |
| 2026-05-09 00:00 | 32.84166 | -96.22206 | 37885 ft | 486 kts | 347° |
| 2026-05-09 00:01 | 32.90926 | -96.22319 | 37897 ft | 484 kts | 347° |
| 2026-05-09 00:01 | 32.97579 | -96.22422 | 37876 ft | 472 kts | 346° |
| 2026-05-09 00:02 | 33.04122 | -96.22535 | 37895 ft | 469 kts | 346° |
| 2026-05-09 00:02 | 33.10638 | -96.22656 | 37889 ft | 468 kts | 346° |
| 2026-05-09 00:03 | 33.17099 | -96.22773 | 37885 ft | 468 kts | 346° |
| 2026-05-09 00:03 | 33.23624 | -96.22886 | 37886 ft | 468 kts | 346° |
| 2026-05-09 00:04 | 33.30142 | -96.23000 | 37875 ft | 469 kts | 346° |
| 2026-05-09 00:04 | 33.36675 | -96.23113 | 37867 ft | 471 kts | 347° |
| 2026-05-09 00:05 | 33.43239 | -96.23229 | 37884 ft | 472 kts | 347° |
| 2026-05-09 00:05 | 33.49820 | -96.23342 | 37862 ft | 473 kts | 347° |
| 2026-05-09 00:06 | 33.56440 | -96.23215 | 37856 ft | 483 kts | 353° |
| 2026-05-09 00:06 | 33.63111 | -96.22317 | 37858 ft | 487 kts | 355° |
| 2026-05-09 00:07 | 33.69836 | -96.21286 | 37863 ft | 486 kts | 355° |
| 2026-05-09 00:07 | 33.76556 | -96.20310 | 37854 ft | 485 kts | 355° |
| 2026-05-09 00:08 | 33.83251 | -96.19384 | 37863 ft | 483 kts | 355° |
| 2026-05-09 00:08 | 33.89915 | -96.18478 | 37871 ft | 481 kts | 355° |
| 2026-05-09 00:09 | 33.96597 | -96.17575 | 37318 ft | 487 kts | 355° |
| 2026-05-09 00:09 | 33.99955 | -96.17116 | 36794 ft | 485 kts | 355° |
| 2026-05-09 00:09 | 34.03305 | -96.16655 | 36201 ft | 484 kts | 355° |
| 2026-05-09 00:09 | 34.06654 | -96.16194 | 35583 ft | 483 kts | 355° |
| 2026-05-09 00:10 | 34.10006 | -96.15734 | 34906 ft | 484 kts | 355° |
| 2026-05-09 00:10 | 34.13355 | -96.15274 | 34229 ft | 485 kts | 356° |
| 2026-05-09 00:10 | 34.16711 | -96.14813 | 33526 ft | 486 kts | 356° |
| 2026-05-09 00:10 | 34.20030 | -96.14357 | 32807 ft | 487 kts | 356° |
| 2026-05-09 00:11 | 34.23408 | -96.13892 | 32025 ft | 488 kts | 357° |
| 2026-05-09 00:11 | 34.26777 | -96.13426 | 31452 ft | 485 kts | 358° |
| 2026-05-09 00:11 | 34.30111 | -96.12961 | 30914 ft | 480 kts | 358° |
| 2026-05-09 00:11 | 34.33414 | -96.12499 | 30382 ft | 475 kts | 358° |
| 2026-05-09 00:12 | 34.36684 | -96.12043 | 29849 ft | 470 kts | 359° |
| 2026-05-09 00:12 | 34.39915 | -96.11595 | 29314 ft | 465 kts | 359° |
| 2026-05-09 00:12 | 34.43117 | -96.11151 | 28771 ft | 460 kts | 359° |
| 2026-05-09 00:12 | 34.46285 | -96.10712 | 28232 ft | 455 kts | 359° |
| 2026-05-09 00:13 | 34.49411 | -96.10278 | 27699 ft | 449 kts | 359° |
| 2026-05-09 00:13 | 34.52506 | -96.09849 | 27168 ft | 445 kts | 359° |
| 2026-05-09 00:13 | 34.55557 | -96.09426 | 26642 ft | 440 kts | 359° |
| 2026-05-09 00:13 | 34.58547 | -96.09011 | 26132 ft | 435 kts | 359° |
| 2026-05-09 00:14 | 34.61539 | -96.08596 | 25609 ft | 430 kts | 359° |
| 2026-05-09 00:14 | 34.64493 | -96.08186 | 25094 ft | 425 kts | 359° |
| 2026-05-09 00:14 | 34.67425 | -96.07778 | 24579 ft | 421 kts | 359° |
| 2026-05-09 00:14 | 34.70322 | -96.07375 | 24076 ft | 416 kts | 359° |
| 2026-05-09 00:15 | 34.73187 | -96.06976 | 23570 ft | 412 kts | 359° |
| 2026-05-09 00:15 | 34.76021 | -96.06580 | 23069 ft | 408 kts | 359° |
| 2026-05-09 00:15 | 34.78829 | -96.06189 | 22566 ft | 404 kts | 359° |
| 2026-05-09 00:15 | 34.81612 | -96.05800 | 22076 ft | 400 kts | 359° |
| 2026-05-09 00:16 | 34.84370 | -96.05414 | 21572 ft | 398 kts | 359° |
| 2026-05-09 00:16 | 34.87112 | -96.05031 | 21087 ft | 395 kts | 359° |
| 2026-05-09 00:16 | 34.89826 | -96.04652 | 20592 ft | 392 kts | 359° |
| 2026-05-09 00:16 | 34.92523 | -96.04275 | 20099 ft | 389 kts | 359° |
| 2026-05-09 00:17 | 34.95209 | -96.03898 | 19613 ft | 386 kts | 359° |
| 2026-05-09 00:17 | 34.97876 | -96.03525 | 19136 ft | 384 kts | 359° |
| 2026-05-09 00:17 | 35.00492 | -96.03159 | 18642 ft | 383 kts | 359° |
| 2026-05-09 00:17 | 35.03138 | -96.02789 | 18155 ft | 382 kts | 359° |
| 2026-05-09 00:18 | 35.05773 | -96.02419 | 17660 ft | 381 kts | 359° |
| 2026-05-09 00:18 | 35.08396 | -96.02050 | 17185 ft | 379 kts | 359° |
| 2026-05-09 00:18 | 35.11008 | -96.01681 | 16769 ft | 376 kts | 360° |
| 2026-05-09 00:18 | 35.13599 | -96.01316 | 16307 ft | 374 kts | 360° |
| 2026-05-09 00:19 | 35.16174 | -96.00954 | 15846 ft | 372 kts | 0° |
| 2026-05-09 00:19 | 35.18734 | -96.00597 | 15363 ft | 370 kts | 0° |
| 2026-05-09 00:19 | 35.21288 | -96.00237 | 14883 ft | 368 kts | 0° |
| 2026-05-09 00:19 | 35.23817 | -95.99878 | 14406 ft | 365 kts | 1° |
| 2026-05-09 00:20 | 35.26336 | -95.99517 | 13941 ft | 364 kts | 1° |
| 2026-05-09 00:20 | 35.28847 | -95.99160 | 13472 ft | 362 kts | 1° |
| 2026-05-09 00:20 | 35.31356 | -95.98808 | 12969 ft | 363 kts | 2° |
| 2026-05-09 00:20 | 35.33855 | -95.98457 | 12501 ft | 361 kts | 2° |
| 2026-05-09 00:21 | 35.36344 | -95.98105 | 12016 ft | 359 kts | 2° |
| 2026-05-09 00:21 | 35.37986 | -95.97873 | 11707 ft | 358 kts | 2° |
| 2026-05-09 00:21 | 35.40451 | -95.97522 | 11246 ft | 356 kts | 3° |
| 2026-05-09 00:21 | 35.42908 | -95.97173 | 10759 ft | 355 kts | 4° |
| 2026-05-09 00:22 | 35.45329 | -95.96829 | 10569 ft | 344 kts | 4° |
| 2026-05-09 00:22 | 35.47672 | -95.96495 | 10388 ft | 334 kts | 4° |
| 2026-05-09 00:22 | 35.49950 | -95.96169 | 10233 ft | 324 kts | 4° |
| 2026-05-09 00:22 | 35.52160 | -95.95854 | 10090 ft | 315 kts | 4° |
| 2026-05-09 00:23 | 35.54309 | -95.95551 | 9951 ft | 307 kts | 4° |
| 2026-05-09 00:23 | 35.56388 | -95.95253 | 9889 ft | 293 kts | 4° |
| 2026-05-09 00:23 | 35.58449 | -95.94974 | 9422 ft | 301 kts | 4° |
| 2026-05-09 00:23 | 35.60514 | -95.94679 | 9041 ft | 299 kts | 5° |
| 2026-05-09 00:24 | 35.62576 | -95.94383 | 8716 ft | 297 kts | 2° |
| 2026-05-09 00:24 | 35.64635 | -95.94180 | 8398 ft | 297 kts | 4° |
| 2026-05-09 00:24 | 35.66664 | -95.93852 | 8046 ft | 293 kts | 8° |
| 2026-05-09 00:24 | 35.68657 | -95.93500 | 7742 ft | 293 kts | 5° |
| 2026-05-09 00:25 | 35.70678 | -95.93202 | 7423 ft | 292 kts | 5° |
| 2026-05-09 00:25 | 35.72690 | -95.92918 | 7106 ft | 290 kts | 5° |
| 2026-05-09 00:25 | 35.74697 | -95.92636 | 6788 ft | 289 kts | 5° |
| 2026-05-09 00:25 | 35.76691 | -95.92355 | 6466 ft | 288 kts | 5° |
| 2026-05-09 00:26 | 35.78667 | -95.92075 | 6159 ft | 287 kts | 5° |
| 2026-05-09 00:26 | 35.80646 | -95.91793 | 5847 ft | 285 kts | 5° |
| 2026-05-09 00:26 | 35.82611 | -95.91512 | 5545 ft | 283 kts | 5° |
| 2026-05-09 00:26 | 35.84567 | -95.91232 | 5240 ft | 282 kts | 4° |
| 2026-05-09 00:27 | 35.86507 | -95.90953 | 4944 ft | 279 kts | 4° |
| 2026-05-09 00:27 | 35.88432 | -95.90677 | 4652 ft | 277 kts | 4° |
| 2026-05-09 00:27 | 35.90341 | -95.90403 | 4349 ft | 275 kts | 4° |
| 2026-05-09 00:27 | 35.92237 | -95.90130 | 4071 ft | 273 kts | 4° |
| 2026-05-09 00:28 | 35.94100 | -95.89907 | 3928 ft | 263 kts | 0° |
| 2026-05-09 00:28 | 35.95856 | -95.89792 | 3810 ft | 248 kts | 359° |
| 2026-05-09 00:28 | 35.97528 | -95.89694 | 3710 ft | 233 kts | 359° |
| 2026-05-09 00:28 | 35.99100 | -95.89597 | 3623 ft | 219 kts | 359° |
| 2026-05-09 00:29 | 36.00592 | -95.89502 | 3567 ft | 213 kts | 359° |
| 2026-05-09 00:29 | 36.02071 | -95.89408 | 3508 ft | 213 kts | 359° |
| 2026-05-09 00:29 | 36.03567 | -95.89313 | 3337 ft | 219 kts | 359° |
| 2026-05-09 00:29 | 36.05088 | -95.89214 | 3110 ft | 218 kts | 359° |
| 2026-05-09 00:30 | 36.06598 | -95.89113 | 2867 ft | 217 kts | 358° |
| 2026-05-09 00:30 | 36.08091 | -95.89018 | 2645 ft | 213 kts | 359° |
| 2026-05-09 00:30 | 36.09543 | -95.88917 | 2410 ft | 204 kts | 0° |
| 2026-05-09 00:30 | 36.10921 | -95.88828 | 2150 ft | 196 kts | 2° |
| 2026-05-09 00:31 | 36.12247 | -95.88742 | 1959 ft | 183 kts | 4° |
| 2026-05-09 00:31 | 36.13433 | -95.88664 | 1889 ft | 158 kts | 4° |
| 2026-05-09 00:31 | 36.14499 | -95.88593 | 1569 ft | 146 kts | 3° |
| 2026-05-09 00:31 | 36.15490 | -95.88528 | 1318 ft | 140 kts | 3° |
| 2026-05-09 00:32 | 36.16459 | -95.88466 | 1121 ft | 139 kts | 2° |
| 2026-05-09 00:32 | 36.17439 | -95.88390 | 938 ft | 144 kts | 3° |
| 2026-05-09 00:32 | 36.18407 | -95.88338 | 756 ft | 135 kts | 2° |
| 2026-05-09 00:32 | 36.19282 | -95.88275 | 665 ft | 109 kts | 2° |
| 2026-05-09 00:33 | 36.19821 | -95.88240 | 668 ft | 47 kts | 2° |
| 2026-05-09 00:33 | 36.20034 | -95.88271 | 667 ft | 25 kts | 333° |
| 2026-05-09 00:33 | 36.20150 | -95.88353 | 667 ft | 9 kts | 313° |
| 2026-05-09 00:33 | 36.20137 | -95.88422 | 667 ft | 10 kts | 213° |
| 2026-05-09 00:34 | 36.20060 | -95.88456 | 667 ft | 14 kts | 198° |
| 2026-05-09 00:34 | 36.19949 | -95.88502 | 667 ft | 19 kts | 198° |
| 2026-05-09 00:34 | 36.19820 | -95.88555 | 667 ft | 19 kts | 198° |
| 2026-05-09 00:34 | 36.19691 | -95.88591 | 667 ft | 19 kts | 181° |
| 2026-05-09 00:35 | 36.19562 | -95.88590 | 669 ft | 18 kts | 179° |
| 2026-05-09 00:35 | 36.19438 | -95.88588 | 667 ft | 17 kts | 179° |
| 2026-05-09 00:35 | 36.19334 | -95.88651 | 667 ft | 17 kts | 230° |
| 2026-05-09 00:35 | 36.19344 | -95.88788 | 667 ft | 16 kts | 288° |
| 2026-05-09 00:36 | 36.19376 | -95.88905 | 667 ft | 12 kts | 267° |
| 2026-05-09 00:36 | 36.19329 | -95.88979 | 667 ft | 9 kts | 217° |
| 2026-05-09 00:36 | 36.19283 | -95.89021 | 665 ft | 7 kts | 199° |
| 2026-05-09 00:36 | 36.19237 | -95.89008 | 667 ft | 5 kts | 155° |
| 2026-05-09 00:37 | 36.19225 | -95.89002 | 667 ft | 2 kts | 155° |
| 2026-05-09 00:37 | 36.19225 | -95.89001 | 667 ft | 0 kts | 155° |